Terminal Aerodrome Forecast
Issued by NWS

Home | Current Version | Previous Version | Text Only | Print | Product List | Glossary On
Versions: 1 2 3 4 5 6 7 8 9 10 11 12 13 14 15 16 17 18
000
FTUS45 KPSR 200521
TAFIWA
TAF
KIWA 200521Z 2006/2106 12005KT P6SM FEW040 BKN060
     FM201600 12005KT P6SM BKN060
     FM201800 VRB05KT P6SM SCT060
     FM202300 24005KT P6SM FEW060
      AMD LTD TO CLD VIS AND WIND TIL 201300=

USA.gov is the U.S. government's official web portal to all federal, state and local government web resources and services.